»·PEaware :: N112PC KTOA-KMRY

N112PC :: KTOA-KMRY

FLIGHT INFORMATION

Flight Status: Arrived
Operator: Privately registered:
United States
More flights under this callsign
Pilot: Gabor H. (24209)
Aircraft: PILATUS PC-12 EAGLE
(PC12)
More flights by this aircraft type
Origin: KTOA Zamperini
United States
Destination: KMRY Monterey Peninsula
United States
More flights between these airports :: More routes between these airports
Route: LAX V23 GMN SNS
File this flight plan on PilotEdge
Remarks:
Altitude:
(Current/Filed)
24,000ft
Speed:
(Current/Filed)
260kts
Departed: 23-Apr-19 11:28 AM
Arrived: 23-Apr-19 12:38 PM
Distance/Time
Traveled:
240nm/1:10
Distance/Time
To Go:
Arrived

Flight Plot

Page will automatically refresh every two minutes.

Flight plan parsing failed; only flown route is shown


Map Options




Map Legend


Flown Route
Filed Route
Departure Airport
Arrival Airport
Navaid (VOR, NDB)
Fix

Horizontal Profiles

Position Reports

Time Latitude Longitude Heading Altitude Ground
Speed
23-Apr-19 11:02 33.805565 -118.347677 0 106ft 0kts
23-Apr-19 11:03 33.805565 -118.347677 134 106ft 0kts
23-Apr-19 11:04 33.805565 -118.347677 134 106ft 0kts
23-Apr-19 11:05 33.805565 -118.347677 134 106ft 0kts
23-Apr-19 11:06 33.805565 -118.347677 134 106ft 0kts
23-Apr-19 11:07 33.805565 -118.347677 134 106ft 0kts
23-Apr-19 11:08 33.805565 -118.347677 134 106ft 0kts
23-Apr-19 11:09 33.805565 -118.347677 134 106ft 0kts
23-Apr-19 11:10 33.805565 -118.347677 134 106ft 0kts
23-Apr-19 11:11 33.805565 -118.347677 134 106ft 0kts
23-Apr-19 11:12 33.805565 -118.347677 134 106ft 0kts
23-Apr-19 11:13 33.805565 -118.347677 134 106ft 0kts
23-Apr-19 11:14 33.805565 -118.347677 134 106ft 0kts
23-Apr-19 11:15 33.805565 -118.347677 134 106ft 0kts
23-Apr-19 11:16 33.805565 -118.347677 134 106ft 0kts
23-Apr-19 11:17 33.805565 -118.347677 134 106ft 0kts
23-Apr-19 11:18 33.805565 -118.347677 134 106ft 0kts
23-Apr-19 11:19 33.805565 -118.347677 134 106ft 0kts
23-Apr-19 11:20 33.805564 -118.347676 134 106ft 0kts
23-Apr-19 11:21 33.806021 -118.346585 121 106ft 2kts
23-Apr-19 11:22 33.802936 -118.341951 128 106ft 24kts
23-Apr-19 11:23 33.799137 -118.336162 128 106ft 22kts
23-Apr-19 11:24 33.798323 -118.334036 41 106ft 6kts
23-Apr-19 11:25 33.798851 -118.333529 35 106ft 0kts
23-Apr-19 11:26 33.799767 -118.333175 313 106ft 13kts
23-Apr-19 11:27 33.817698 -118.360076 304 1290ft 136kts
23-Apr-19 11:28 33.816777 -118.403384 235 2809ft 152kts
23-Apr-19 11:29 33.782582 -118.411967 116 3473ft 167kts
23-Apr-19 11:30 33.795666 -118.364158 19 5013ft 151kts
23-Apr-19 11:31 33.838143 -118.370297 342 6761ft 167kts
23-Apr-19 11:32 33.883274 -118.397069 334 8506ft 190kts
23-Apr-19 11:33 33.931860 -118.429771 337 10226ft 205kts
23-Apr-19 11:34 33.985367 -118.457343 342 11897ft 208kts
23-Apr-19 11:35 34.039136 -118.482697 343 13607ft 210kts
23-Apr-19 11:36 34.094107 -118.509430 343 15338ft 215kts
23-Apr-19 11:37 34.150989 -118.537376 343 16834ft 218kts
23-Apr-19 11:38 34.205764 -118.564616 344 18350ft 209kts
23-Apr-19 11:39 34.260426 -118.591523 344 19840ft 207kts
23-Apr-19 11:40 34.312024 -118.616991 344 21304ft 199kts
23-Apr-19 11:41 34.361919 -118.641386 344 22793ft 189kts
23-Apr-19 11:42 34.410143 -118.665329 344 24019ft 193kts
23-Apr-19 11:43 34.463571 -118.691253 343 24111ft 217kts
23-Apr-19 11:44 34.520533 -118.719762 344 24140ft 223kts
23-Apr-19 11:45 34.578287 -118.747787 343 24176ft 224kts
23-Apr-19 11:46 34.636198 -118.776452 343 24203ft 225kts
23-Apr-19 11:47 34.694358 -118.805444 342 24218ft 226kts
23-Apr-19 11:48 34.752801 -118.834739 342 24221ft 227kts
23-Apr-19 11:49 34.808635 -118.872409 325 24219ft 237kts
23-Apr-19 11:50 34.854307 -118.931475 319 24215ft 243kts
23-Apr-19 11:51 34.899815 -118.995110 318 24182ft 246kts
23-Apr-19 11:52 34.944074 -119.058049 318 24171ft 244kts
23-Apr-19 11:53 34.987155 -119.119501 317 24140ft 244kts
23-Apr-19 11:54 35.031218 -119.182501 317 24123ft 244kts
23-Apr-19 11:55 35.075231 -119.245557 317 24114ft 244kts
23-Apr-19 11:56 35.119243 -119.308728 317 24112ft 245kts
23-Apr-19 11:57 35.163710 -119.372644 316 24103ft 245kts
23-Apr-19 11:58 35.207785 -119.436161 316 24100ft 245kts
23-Apr-19 12:00 35.251792 -119.499677 316 24097ft 245kts
23-Apr-19 12:01 35.296055 -119.563661 315 24093ft 246kts
23-Apr-19 12:02 35.340219 -119.627657 315 24108ft 247kts
23-Apr-19 12:03 35.385269 -119.692956 315 24083ft 249kts
23-Apr-19 12:04 35.429631 -119.757536 315 24086ft 246kts
23-Apr-19 12:05 35.473643 -119.821673 315 24071ft 245kts
23-Apr-19 12:06 35.517719 -119.886010 314 24068ft 245kts
23-Apr-19 12:07 35.561630 -119.950225 314 24071ft 246kts
23-Apr-19 12:08 35.605854 -120.014987 314 24084ft 249kts
23-Apr-19 12:09 35.650934 -120.081114 314 24056ft 249kts
23-Apr-19 12:10 35.694986 -120.145969 314 24065ft 246kts
23-Apr-19 12:11 35.738943 -120.210749 314 24066ft 245kts
23-Apr-19 12:12 35.782677 -120.275313 314 24066ft 245kts
23-Apr-19 12:13 35.826394 -120.339971 314 24067ft 245kts
23-Apr-19 12:14 35.870063 -120.404681 314 24067ft 245kts
23-Apr-19 12:15 35.913928 -120.469778 314 23871ft 252kts
23-Apr-19 12:16 35.960037 -120.538209 313 22384ft 264kts
23-Apr-19 12:17 36.007036 -120.608265 313 20391ft 261kts
23-Apr-19 12:18 36.052638 -120.676479 314 18381ft 258kts
23-Apr-19 12:18 36.091436 -120.734452 313 16629ft 263kts
23-Apr-19 12:19 36.137347 -120.803229 313 14681ft 268kts
23-Apr-19 12:21 36.192260 -120.885810 312 12711ft 264kts
23-Apr-19 12:21 36.231054 -120.944254 312 11512ft 260kts
23-Apr-19 12:22 36.276912 -121.013375 311 10112ft 259kts
23-Apr-19 12:23 36.322453 -121.082252 310 9079ft 256kts
23-Apr-19 12:24 36.367802 -121.151005 310 8171ft 252kts
23-Apr-19 12:25 36.411841 -121.217923 310 7858ft 252kts
23-Apr-19 12:26 36.456396 -121.285680 310 6973ft 253kts
23-Apr-19 12:27 36.500174 -121.352446 310 5473ft 230kts
23-Apr-19 12:28 36.521661 -121.419560 282 5052ft 205kts
23-Apr-19 12:29 36.531644 -121.487963 282 4919ft 206kts
23-Apr-19 12:30 36.552634 -121.553897 299 4251ft 198kts
23-Apr-19 12:31 36.570070 -121.617176 276 3451ft 190kts
23-Apr-19 12:32 36.574156 -121.680803 275 2676ft 167kts
23-Apr-19 12:33 36.574034 -121.725040 266 2274ft 105kts
23-Apr-19 12:34 36.572247 -121.760227 272 2206ft 110kts
23-Apr-19 12:35 36.574284 -121.796282 282 1172ft 91kts
23-Apr-19 12:36 36.581819 -121.824481 292 488ft 83kts
23-Apr-19 12:37 36.586942 -121.838809 22 208ft 0kts
23-Apr-19 12:38 36.587551 -121.840284 294 208ft 6kts
23-Apr-19 12:39 36.588633 -121.843497 292 208ft 5kts
23-Apr-19 12:40 36.588884 -121.844259 282 208ft 0kts
23-Apr-19 12:41 36.588627 -121.844548 201 208ft 5kts
23-Apr-19 12:42 36.587335 -121.847828 292 208ft 18kts
23-Apr-19 12:43 36.588807 -121.853223 200 208ft 3kts
23-Apr-19 12:44 36.588769 -121.853795 291 208ft 0kts
23-Apr-19 12:45 36.588769 -121.853795 291 208ft 0kts
23-Apr-19 12:46 36.588769 -121.853795 291 208ft 0kts
23-Apr-19 12:47 36.588769 -121.853795 291 208ft 0kts

Navigation Log

Ident Type
Flight plan parsing failed, navigation log unavailable